Aviation Digital Data Service (ADDS)

Output produced by TAFs form (1623 UTC 23 November 2017)
found at http://www.aviationweather.gov/adds/tafs/
 
METAR text: ZYTX 231600Z 28002MPS CAVOK M08/M21 Q1022 NOSIG
Conditions at: ZYTX (SHENYANG/TAOKIAN, CN) observed 1600 UTC 23 November 2017
Temperature: -8.0°C (18°F)
Dewpoint: -21.0°C (-6°F) [RH = 34%]
Pressure (altimeter): 30.18 inches Hg (1022.0 mb)
Winds: from the W (280 degrees) at 5 MPH (4 knots; 2.1 m/s)
Visibility: 6 or more miles (10+ km)
Ceiling: ceiling and visibility are OK
Clouds: unknown
Weather: no significant weather observed at this time

Forecast for: ZYTX (SHENYANG/TAOKIAN, CN)
Text: TAF ZYTX 231435Z 2318/2418 32004MPS CAVOK TXM02/06Z TNM11/22Z
Forecast period: 1800 UTC 23 November 2017 to 1800 UTC 24 November 2017
Forecast type: FROM: standard forecast or significant change
Winds: from the NW (320 degrees) at 9 MPH (8 knots; 4.2 m/s)
Visibility: 6 or more miles (10+ km)
Clouds: not forecast
Temperature: minimum -11.0°C (12°F) expected at 2200 UTC, maximum -2.0°C (28°F) expected at 0600 UTC
Weather: no significant weather forecast for this period